Time;durP1;ratioP1;P1;durP2;ratioP2;P2;SDS_P1;SDS_P2;PMS_P1;PMS_P2;Temp;Humidity;BMP_temperature;BMP_pressure;BME280_temperature;BME280_humidity;BME280_pressure;Samples;Min_cycle;Max_cycle;Signal;HPM_P1;HPM_P2
2023/03/06 00:00:34;;;;;;;4.13;1.08;;;;;;;;;;5059587;28;20413;-84
2023/03/06 00:03:07;;;;;;;3.83;1.20;;;;;;;;;;5051390;28;20420;-84
2023/03/06 00:05:35;;;;;;;2.95;1.10;;;;;;;;;;5067116;28;20416;-84
2023/03/06 00:08:04;;;;;;;3.50;1.25;;;;;;;;;;5047333;28;20425;-83
2023/03/06 00:10:37;;;;;;;4.15;1.30;;;;;;;;;;5050937;28;20787;-83
2023/03/06 00:13:11;;;;;;;3.50;1.20;;;;;;;;;;5054730;28;20415;-84
2023/03/06 00:15:39;;;;;;;4.78;1.20;;;;;;;;;;5062756;28;20423;-84
2023/03/06 00:18:12;;;;;;;4.18;1.20;;;;;;;;;;5062177;28;20418;-84
2023/03/06 00:20:45;;;;;;;2.80;1.20;;;;;;;;;;5041876;28;20421;-84
2023/03/06 00:23:14;;;;;;;4.35;1.23;;;;;;;;;;5069541;28;20424;-84
2023/03/06 00:25:47;;;;;;;3.60;1.10;;;;;;;;;;5046032;28;21197;-84
2023/03/06 00:28:14;;;;;;;3.22;1.10;;;;;;;;;;5049560;28;20420;-84
2023/03/06 00:30:42;;;;;;;3.33;1.10;;;;;;;;;;5051801;28;20419;-84
2023/03/06 00:33:10;;;;;;;3.70;1.30;;;;;;;;;;5057736;28;20425;-84
2023/03/06 00:35:38;;;;;;;5.70;1.30;;;;;;;;;;5048885;28;20428;-84
2023/03/06 00:38:12;;;;;;;4.38;1.10;;;;;;;;;;5048720;28;20419;-84
2023/03/06 00:40:41;;;;;;;5.30;1.30;;;;;;;;;;5067828;28;20761;-84
2023/03/06 00:43:09;;;;;;;4.40;1.20;;;;;;;;;;5052001;28;20780;-84
2023/03/06 00:45:42;;;;;;;3.25;1.20;;;;;;;;;;5043733;28;20424;-84
2023/03/06 00:48:14;;;;;;;4.33;1.20;;;;;;;;;;5039679;28;20422;-84
2023/03/06 00:50:42;;;;;;;5.28;1.20;;;;;;;;;;5065429;28;20415;-83
2023/03/06 00:53:12;;;;;;;4.07;1.10;;;;;;;;;;5051652;28;20412;-84
2023/03/06 00:55:46;;;;;;;3.30;1.30;;;;;;;;;;5046284;28;20788;-84
2023/03/06 00:58:14;;;;;;;4.20;1.70;;;;;;;;;;5053304;28;20412;-84
2023/03/06 01:00:46;;;;;;;4.90;1.60;;;;;;;;;;5058789;28;20421;-84
2023/03/06 01:03:14;;;;;;;3.85;1.40;;;;;;;;;;5039271;28;20786;-84
2023/03/06 01:05:48;;;;;;;5.88;1.52;;;;;;;;;;5043728;28;20750;-85
2023/03/06 01:08:15;;;;;;;3.78;1.50;;;;;;;;;;5065702;28;20404;-84
2023/03/06 01:10:43;;;;;;;6.20;2.10;;;;;;;;;;5050024;28;20413;-84
2023/03/06 01:13:18;;;;;;;9.35;2.20;;;;;;;;;;5061124;28;20436;-84
2023/03/06 01:15:45;;;;;;;6.68;2.00;;;;;;;;;;5046350;28;20433;-85
2023/03/06 01:18:20;;;;;;;5.18;1.92;;;;;;;;;;5068726;28;20419;-84
2023/03/06 01:20:53;;;;;;;7.10;2.17;;;;;;;;;;5043120;28;20433;-85
2023/03/06 01:23:21;;;;;;;7.00;2.08;;;;;;;;;;5040848;28;20759;-84
2023/03/06 01:25:49;;;;;;;5.38;2.03;;;;;;;;;;5052041;28;20419;-84
2023/03/06 01:28:20;;;;;;;5.63;2.20;;;;;;;;;;5047001;28;20876;-85
2023/03/06 01:30:53;;;;;;;7.38;2.20;;;;;;;;;;5047363;28;20800;-85
2023/03/06 01:33:21;;;;;;;4.68;2.05;;;;;;;;;;5063553;28;20396;-85
2023/03/06 01:35:49;;;;;;;6.75;2.20;;;;;;;;;;5061911;28;20748;-85
2023/03/06 01:38:22;;;;;;;8.10;2.30;;;;;;;;;;5053861;28;20910;-85
2023/03/06 01:40:55;;;;;;;4.97;1.90;;;;;;;;;;5047197;28;20427;-84
2023/03/06 01:43:27;;;;;;;5.65;2.08;;;;;;;;;;5044812;28;20423;-85
2023/03/06 01:46:17;;;;;;;5.35;2.17;;;;;;;;;;5069336;28;20399;-85
2023/03/06 01:48:52;;;;;;;6.60;2.17;;;;;;;;;;5052343;28;20426;-85
2023/03/06 01:51:26;;;;;;;5.35;2.00;;;;;;;;;;5050926;28;20410;-84
2023/03/06 01:54:00;;;;;;;6.60;2.30;;;;;;;;;;5041458;28;20428;-85
2023/03/06 01:56:33;;;;;;;4.77;2.00;;;;;;;;;;5064663;28;20862;-84
2023/03/06 01:59:02;;;;;;;5.63;2.22;;;;;;;;;;5048878;28;20428;-85
2023/03/06 02:01:32;;;;;;;5.68;2.10;;;;;;;;;;5058409;28;20425;-85
2023/03/06 02:04:00;;;;;;;5.00;2.08;;;;;;;;;;5046326;28;20429;-85
2023/03/06 02:06:33;;;;;;;5.13;2.28;;;;;;;;;;5048486;28;20432;-85
2023/03/06 02:09:04;;;;;;;5.63;2.25;;;;;;;;;;5068041;28;20434;-85
2023/03/06 02:11:31;;;;;;;7.03;2.15;;;;;;;;;;5041300;28;20421;-84
2023/03/06 02:14:05;;;;;;;6.25;2.45;;;;;;;;;;5051547;28;20771;-85
2023/03/06 02:16:33;;;;;;;7.38;2.30;;;;;;;;;;5048056;28;20427;-84
2023/03/06 02:19:08;;;;;;;7.60;2.60;;;;;;;;;;5069736;28;20422;-85
2023/03/06 02:21:41;;;;;;;6.65;2.75;;;;;;;;;;5043410;28;20422;-85
2023/03/06 02:24:23;;;;;;;6.90;2.67;;;;;;;;;;5068112;28;20420;-85
2023/03/06 02:26:58;;;;;;;7.33;2.90;;;;;;;;;;5040365;28;20415;-85
2023/03/06 02:29:31;;;;;;;9.00;2.97;;;;;;;;;;5049906;28;20420;-84
2023/03/06 02:32:04;;;;;;;8.68;3.60;;;;;;;;;;5055272;28;20431;-85
2023/03/06 02:34:46;;;;;;;11.43;4.15;;;;;;;;;;5074225;28;20415;-85
2023/03/06 02:37:19;;;;;;;8.57;3.60;;;;;;;;;;5048886;28;20425;-85
2023/03/06 02:39:48;;;;;;;9.85;4.20;;;;;;;;;;5074240;28;20410;-85
2023/03/06 02:42:22;;;;;;;11.40;4.97;;;;;;;;;;5060007;28;20417;-85
2023/03/06 02:44:51;;;;;;;12.13;4.97;;;;;;;;;;5068615;28;20438;-85
2023/03/06 02:47:19;;;;;;;10.35;5.00;;;;;;;;;;5048315;28;20903;-85
2023/03/06 02:49:46;;;;;;;11.60;5.18;;;;;;;;;;5066297;28;20430;-85
2023/03/06 02:52:14;;;;;;;12.53;5.37;;;;;;;;;;5055383;28;20424;-85
2023/03/06 02:54:47;;;;;;;11.45;5.68;;;;;;;;;;5053413;28;20427;-85
2023/03/06 02:57:15;;;;;;;13.77;6.43;;;;;;;;;;5067954;28;20768;-85
2023/03/06 02:59:45;;;;;;;13.63;6.65;;;;;;;;;;5059905;28;20878;-85
2023/03/06 03:02:12;;;;;;;13.38;6.72;;;;;;;;;;5045989;28;20416;-85
2023/03/06 03:04:40;;;;;;;14.00;6.45;;;;;;;;;;5052437;28;20957;-85
2023/03/06 03:07:09;;;;;;;14.70;7.32;;;;;;;;;;5064434;28;20436;-85
2023/03/06 03:09:37;;;;;;;16.48;7.60;;;;;;;;;;5043979;28;20423;-85
2023/03/06 03:12:06;;;;;;;17.27;7.75;;;;;;;;;;5056718;28;20422;-85
2023/03/06 03:14:34;;;;;;;15.95;7.65;;;;;;;;;;5059674;28;20443;-86
2023/03/06 03:17:04;;;;;;;16.42;7.80;;;;;;;;;;5047172;28;20426;-85
2023/03/06 03:19:37;;;;;;;15.88;7.47;;;;;;;;;;5056386;28;20426;-85
2023/03/06 03:22:06;;;;;;;17.48;8.10;;;;;;;;;;5050043;28;20419;-85
2023/03/06 03:24:34;;;;;;;16.40;8.45;;;;;;;;;;5065229;28;20428;-85
2023/03/06 03:27:02;;;;;;;15.90;8.02;;;;;;;;;;5055741;28;20765;-85
2023/03/06 03:29:30;;;;;;;18.90;8.03;;;;;;;;;;5050017;28;20413;-84
2023/03/06 03:31:58;;;;;;;20.15;8.35;;;;;;;;;;5044074;28;20435;-85
2023/03/06 03:34:32;;;;;;;19.08;8.80;;;;;;;;;;5056333;28;20899;-85
2023/03/06 03:37:00;;;;;;;19.42;9.20;;;;;;;;;;5054823;28;20805;-86
2023/03/06 03:39:33;;;;;;;20.15;9.10;;;;;;;;;;5048715;28;20781;-84
2023/03/06 03:42:03;;;;;;;19.83;9.77;;;;;;;;;;5048103;28;20911;-86
2023/03/06 03:44:36;;;;;;;19.73;9.73;;;;;;;;;;5053212;28;20922;-86
2023/03/06 03:47:04;;;;;;;17.67;9.27;;;;;;;;;;5046460;28;20420;-86
2023/03/06 03:49:33;;;;;;;19.27;10.10;;;;;;;;;;5052549;28;20764;-85
2023/03/06 03:52:01;;;;;;;22.50;10.38;;;;;;;;;;5067617;28;20411;-85
2023/03/06 03:54:32;;;;;;;20.52;9.63;;;;;;;;;;5065993;28;20419;-86
2023/03/06 03:57:00;;;;;;;18.73;9.20;;;;;;;;;;5071170;28;20404;-85
2023/03/06 03:59:37;;;;;;;18.40;9.20;;;;;;;;;;5051471;28;20402;-86
2023/03/06 04:02:21;;;;;;;22.70;9.93;;;;;;;;;;5055284;28;20796;-86
2023/03/06 04:04:58;;;;;;;17.70;9.15;;;;;;;;;;5047085;28;20424;-85
2023/03/06 04:07:26;;;;;;;18.52;9.40;;;;;;;;;;5055436;28;20420;-85
2023/03/06 04:10:00;;;;;;;19.00;9.55;;;;;;;;;;5056344;28;20914;-86
2023/03/06 04:12:29;;;;;;;19.40;9.87;;;;;;;;;;5051709;28;20448;-85
2023/03/06 04:15:02;;;;;;;20.88;10.05;;;;;;;;;;5048176;28;20428;-85
2023/03/06 04:17:35;;;;;;;19.50;9.70;;;;;;;;;;5049821;28;20413;-86
2023/03/06 04:20:15;;;;;;;20.38;10.15;;;;;;;;;;5055340;28;20415;-85
2023/03/06 04:22:44;;;;;;;19.77;9.80;;;;;;;;;;5049999;28;21250;-85
2023/03/06 04:25:12;;;;;;;21.63;11.07;;;;;;;;;;5049149;28;20415;-85
2023/03/06 04:27:40;;;;;;;21.73;10.77;;;;;;;;;;5052877;28;20952;-85
2023/03/06 04:30:09;;;;;;;23.03;11.80;;;;;;;;;;5052107;28;20411;-85
2023/03/06 04:32:37;;;;;;;24.40;11.77;;;;;;;;;;5055191;28;20921;-85
2023/03/06 04:35:05;;;;;;;23.98;12.07;;;;;;;;;;5067503;28;20900;-85
2023/03/06 04:37:39;;;;;;;26.65;13.05;;;;;;;;;;5045692;28;20410;-85
2023/03/06 04:40:16;;;;;;;26.15;13.23;;;;;;;;;;5050382;28;20779;-85
2023/03/06 04:42:44;;;;;;;27.23;13.57;;;;;;;;;;5065740;28;20409;-85
2023/03/06 04:45:12;;;;;;;30.85;13.93;;;;;;;;;;5054325;28;20423;-85
2023/03/06 04:47:40;;;;;;;33.25;15.65;;;;;;;;;;5054570;28;20431;-85
2023/03/06 04:50:09;;;;;;;34.33;14.90;;;;;;;;;;5055074;28;20439;-85
2023/03/06 04:52:43;;;;;;;35.75;15.13;;;;;;;;;;5052777;28;20427;-84
2023/03/06 04:55:16;;;;;;;35.53;15.97;;;;;;;;;;5048113;28;20419;-84
2023/03/06 04:57:49;;;;;;;37.42;16.50;;;;;;;;;;5050935;28;20431;-85
2023/03/06 05:00:19;;;;;;;36.15;15.43;;;;;;;;;;5049180;28;20419;-85
2023/03/06 05:02:47;;;;;;;33.83;14.80;;;;;;;;;;5050815;28;20429;-85
2023/03/06 05:05:16;;;;;;;38.55;17.00;;;;;;;;;;5045110;28;20421;-85
2023/03/06 05:07:45;;;;;;;34.13;15.47;;;;;;;;;;5065298;28;20416;-85
2023/03/06 05:10:14;;;;;;;37.67;16.30;;;;;;;;;;5046722;28;20415;-85
2023/03/06 05:12:42;;;;;;;40.88;17.35;;;;;;;;;;5042280;28;20421;-84
2023/03/06 05:15:15;;;;;;;44.90;18.87;;;;;;;;;;5066837;28;20416;-85
2023/03/06 05:17:44;;;;;;;40.15;17.92;;;;;;;;;;5061063;28;20405;-86
2023/03/06 05:20:17;;;;;;;42.53;18.42;;;;;;;;;;5052500;28;20430;-85
2023/03/06 05:22:47;;;;;;;42.17;18.70;;;;;;;;;;5071910;28;20408;-85
2023/03/06 05:25:14;;;;;;;39.37;17.37;;;;;;;;;;5067479;28;20392;-85
2023/03/06 05:27:47;;;;;;;35.67;16.85;;;;;;;;;;5066008;28;20413;-85
2023/03/06 05:30:15;;;;;;;32.22;15.57;;;;;;;;;;5055023;28;20412;-85
2023/03/06 05:32:43;;;;;;;32.05;15.05;;;;;;;;;;5049218;28;20420;-84
2023/03/06 05:35:16;;;;;;;29.97;14.53;;;;;;;;;;5068101;28;20832;-84
2023/03/06 05:37:50;;;;;;;31.98;15.20;;;;;;;;;;5048829;28;20413;-84
2023/03/06 05:40:18;;;;;;;30.15;14.45;;;;;;;;;;5044959;28;20893;-85
2023/03/06 05:42:51;;;;;;;32.55;15.15;;;;;;;;;;5049354;28;20424;-85
2023/03/06 05:45:19;;;;;;;31.23;14.70;;;;;;;;;;5065222;28;20872;-84
2023/03/06 05:47:52;;;;;;;33.08;15.27;;;;;;;;;;5047754;28;20935;-85
2023/03/06 05:50:20;;;;;;;28.88;14.30;;;;;;;;;;5053759;28;20416;-85
2023/03/06 05:52:54;;;;;;;32.83;14.10;;;;;;;;;;5069408;28;20423;-85
2023/03/06 05:55:27;;;;;;;33.58;14.65;;;;;;;;;;5049082;28;20425;-84
2023/03/06 05:57:59;;;;;;;33.13;15.27;;;;;;;;;;5046698;28;20416;-83
2023/03/06 06:00:32;;;;;;;30.40;14.25;;;;;;;;;;5044027;28;20927;-84
2023/03/06 06:03:00;;;;;;;32.03;14.88;;;;;;;;;;5050256;28;20430;-84
2023/03/06 06:05:33;;;;;;;34.20;15.38;;;;;;;;;;5041754;28;20429;-84
2023/03/06 06:08:02;;;;;;;33.60;15.98;;;;;;;;;;5053362;28;20424;-84
2023/03/06 06:10:35;;;;;;;31.92;15.35;;;;;;;;;;5063439;28;20428;-84
2023/03/06 06:13:02;;;;;;;34.30;15.18;;;;;;;;;;5051509;28;20419;-84
2023/03/06 06:15:31;;;;;;;30.35;14.73;;;;;;;;;;5068106;28;20417;-83
2023/03/06 06:17:58;;;;;;;28.45;14.18;;;;;;;;;;5057472;28;20412;-84
2023/03/06 06:20:27;;;;;;;31.20;14.80;;;;;;;;;;5047896;28;20413;-84
2023/03/06 06:23:00;;;;;;;30.88;14.52;;;;;;;;;;5059500;28;20438;-84
2023/03/06 06:25:34;;;;;;;29.08;14.05;;;;;;;;;;5057864;28;20805;-84
2023/03/06 06:28:02;;;;;;;31.05;14.15;;;;;;;;;;5059435;28;20446;-84
2023/03/06 06:30:29;;;;;;;30.67;13.07;;;;;;;;;;5055772;28;20420;-83
2023/03/06 06:33:02;;;;;;;30.20;13.35;;;;;;;;;;5049991;28;20416;-83
2023/03/06 06:35:30;;;;;;;30.95;13.45;;;;;;;;;;5040840;28;20481;-83
2023/03/06 06:37:58;;;;;;;29.38;13.02;;;;;;;;;;5044944;28;21139;-84
2023/03/06 06:40:26;;;;;;;28.63;14.07;;;;;;;;;;5045241;28;20761;-84
2023/03/06 06:43:00;;;;;;;28.15;12.52;;;;;;;;;;5052546;28;20878;-84
2023/03/06 06:45:28;;;;;;;28.50;12.47;;;;;;;;;;5058530;28;20512;-84
2023/03/06 06:47:56;;;;;;;24.95;11.90;;;;;;;;;;5048716;28;20423;-84
2023/03/06 06:50:23;;;;;;;25.40;11.77;;;;;;;;;;5056954;28;20413;-84
2023/03/06 06:52:56;;;;;;;24.98;11.25;;;;;;;;;;5060866;28;20419;-83
2023/03/06 06:55:24;;;;;;;23.98;10.95;;;;;;;;;;5067296;28;20411;-83
2023/03/06 06:57:52;;;;;;;24.52;11.48;;;;;;;;;;5046882;28;20416;-84
2023/03/06 07:00:26;;;;;;;24.23;11.15;;;;;;;;;;5066092;28;20420;-84
2023/03/06 07:02:59;;;;;;;24.70;11.50;;;;;;;;;;5051692;28;20427;-84
2023/03/06 07:05:32;;;;;;;24.63;11.07;;;;;;;;;;5064432;28;20416;-84
2023/03/06 07:08:00;;;;;;;24.92;11.38;;;;;;;;;;5047674;28;20425;-82
2023/03/06 07:10:27;;;;;;;23.02;10.73;;;;;;;;;;5059001;28;21168;-81
2023/03/06 07:13:00;;;;;;;20.95;9.77;;;;;;;;;;5056191;28;20419;-83
2023/03/06 07:15:35;;;;;;;23.02;10.48;;;;;;;;;;5061085;28;20411;-84
2023/03/06 07:18:07;;;;;;;25.83;10.50;;;;;;;;;;5055785;28;20411;-85
2023/03/06 07:20:35;;;;;;;21.45;9.10;;;;;;;;;;5045358;28;20440;-84
2023/03/06 07:23:03;;;;;;;22.77;9.18;;;;;;;;;;5056099;28;20446;-85
2023/03/06 07:25:37;;;;;;;22.70;9.55;;;;;;;;;;5068998;28;20432;-84
2023/03/06 07:28:09;;;;;;;22.45;9.55;;;;;;;;;;5059368;28;20801;-88
2023/03/06 07:30:44;;;;;;;22.63;9.55;;;;;;;;;;5050857;28;20465;-83
2023/03/06 07:33:12;;;;;;;25.75;9.40;;;;;;;;;;5052242;28;20925;-88
2023/03/06 07:35:44;;;;;;;25.33;9.18;;;;;;;;;;5049704;28;20425;-83
2023/03/06 07:38:17;;;;;;;24.27;10.02;;;;;;;;;;5048842;28;20428;-90
2023/03/06 07:40:49;;;;;;;21.70;9.43;;;;;;;;;;5050358;28;20439;-84
2023/03/06 07:43:22;;;;;;;22.03;9.67;;;;;;;;;;5061752;28;20425;-85
2023/03/06 07:46:00;;;;;;;19.45;9.10;;;;;;;;;;5055279;28;20429;-85
2023/03/06 07:48:33;;;;;;;23.27;9.70;;;;;;;;;;5041092;28;20956;-85
2023/03/06 07:51:02;;;;;;;22.83;9.80;;;;;;;;;;5045324;28;20428;-84
2023/03/06 07:53:35;;;;;;;19.98;9.10;;;;;;;;;;5051027;28;20424;-82
2023/03/06 07:56:07;;;;;;;21.30;9.20;;;;;;;;;;5050307;28;20758;-83
2023/03/06 07:58:35;;;;;;;23.35;8.90;;;;;;;;;;5053291;28;20421;-83
2023/03/06 08:01:10;;;;;;;23.17;9.70;;;;;;;;;;5059491;28;20435;-83
2023/03/06 08:03:39;;;;;;;24.25;9.95;;;;;;;;;;5055574;28;20936;-83
2023/03/06 08:06:13;;;;;;;23.95;8.82;;;;;;;;;;5065264;28;20434;-83
2023/03/06 08:08:41;;;;;;;24.95;8.75;;;;;;;;;;5050723;28;20429;-84
2023/03/06 08:11:15;;;;;;;23.25;9.52;;;;;;;;;;5041211;28;21095;-84
2023/03/06 08:13:43;;;;;;;21.42;8.75;;;;;;;;;;5041056;28;20420;-84
2023/03/06 08:16:19;;;;;;;21.45;8.82;;;;;;;;;;5044517;28;20923;-85
2023/03/06 08:18:47;;;;;;;21.67;8.82;;;;;;;;;;5042754;28;20436;-83
2023/03/06 08:21:15;;;;;;;21.07;8.87;;;;;;;;;;5042217;28;20521;-84
2023/03/06 08:23:43;;;;;;;20.07;9.20;;;;;;;;;;5059949;28;20529;-83
2023/03/06 08:26:12;;;;;;;17.50;8.10;;;;;;;;;;5053331;28;20439;-84
2023/03/06 08:28:45;;;;;;;19.52;9.02;;;;;;;;;;5063493;28;20428;-84
2023/03/06 08:31:19;;;;;;;21.25;9.35;;;;;;;;;;5065052;28;20428;-81
2023/03/06 08:33:49;;;;;;;19.60;8.80;;;;;;;;;;5063670;28;20402;-82
2023/03/06 08:36:17;;;;;;;20.20;8.93;;;;;;;;;;5045196;28;20420;-82
2023/03/06 08:38:50;;;;;;;22.05;8.60;;;;;;;;;;5044356;28;20424;-83
2023/03/06 08:41:17;;;;;;;19.08;8.65;;;;;;;;;;5045860;28;20416;-82
2023/03/06 08:43:45;;;;;;;19.40;8.90;;;;;;;;;;5047637;28;20892;-82
2023/03/06 08:46:19;;;;;;;19.93;8.90;;;;;;;;;;5044360;28;20425;-83
2023/03/06 08:48:53;;;;;;;18.48;8.23;;;;;;;;;;5044329;28;20429;-82
2023/03/06 08:51:27;;;;;;;23.15;8.70;;;;;;;;;;5055604;28;20430;-82
2023/03/06 08:54:00;;;;;;;19.77;8.30;;;;;;;;;;5042949;28;20421;-82
2023/03/06 08:56:29;;;;;;;21.40;8.55;;;;;;;;;;5064299;28;20448;-82
2023/03/06 08:59:03;;;;;;;20.53;9.17;;;;;;;;;;5044761;28;20460;-82
2023/03/06 09:01:37;;;;;;;20.13;8.40;;;;;;;;;;5057892;28;20429;-82
2023/03/06 09:04:11;;;;;;;19.38;8.60;;;;;;;;;;5069497;28;20427;-82
2023/03/06 09:06:40;;;;;;;21.45;9.10;;;;;;;;;;5046724;28;20412;-85
2023/03/06 09:09:13;;;;;;;19.08;10.27;;;;;;;;;;5040782;28;20793;-84
2023/03/06 09:11:46;;;;;;;21.35;10.70;;;;;;;;;;5047806;28;20420;-83
2023/03/06 09:14:14;;;;;;;20.27;10.10;;;;;;;;;;5055118;28;20424;-83
2023/03/06 09:16:47;;;;;;;22.02;11.10;;;;;;;;;;5059980;28;20438;-83
2023/03/06 09:19:21;;;;;;;24.83;11.75;;;;;;;;;;5047480;28;20415;-83
2023/03/06 09:21:48;;;;;;;22.80;11.45;;;;;;;;;;5055237;28;20425;-83
2023/03/06 09:24:21;;;;;;;24.13;12.15;;;;;;;;;;5047110;28;20425;-83
2023/03/06 09:26:54;;;;;;;22.35;10.73;;;;;;;;;;5062559;28;20421;-81
2023/03/06 09:29:27;;;;;;;21.23;10.80;;;;;;;;;;5057358;28;20423;-83
2023/03/06 09:32:00;;;;;;;25.75;11.52;;;;;;;;;;5062329;28;20433;-83
2023/03/06 09:34:34;;;;;;;21.15;10.98;;;;;;;;;;5037897;28;20418;-84
2023/03/06 09:37:06;;;;;;;21.88;11.13;;;;;;;;;;5056916;28;20421;-84
2023/03/06 09:39:34;;;;;;;22.30;10.95;;;;;;;;;;5058792;28;20406;-82
2023/03/06 09:42:11;;;;;;;22.10;10.25;;;;;;;;;;5040406;28;20424;-81
2023/03/06 09:44:46;;;;;;;21.05;9.95;;;;;;;;;;5043129;28;20430;-82
2023/03/06 09:47:28;;;;;;;22.08;9.93;;;;;;;;;;5049581;28;20412;-82
2023/03/06 09:50:08;;;;;;;18.98;9.85;;;;;;;;;;5031600;28;20948;-82
2023/03/06 09:52:42;;;;;;;21.88;9.38;;;;;;;;;;5039157;28;20421;-82
2023/03/06 09:55:11;;;;;;;18.98;9.40;;;;;;;;;;5045511;28;20431;-82
2023/03/06 09:57:48;;;;;;;16.85;9.07;;;;;;;;;;5041735;28;21000;-81
2023/03/06 10:00:19;;;;;;;14.95;8.10;;;;;;;;;;5044487;28;20414;-82
2023/03/06 10:02:55;;;;;;;18.00;8.98;;;;;;;;;;5051478;28;20430;-83
2023/03/06 10:05:34;;;;;;;17.27;9.07;;;;;;;;;;5048793;28;20429;-82
2023/03/06 10:08:05;;;;;;;16.70;7.67;;;;;;;;;;5050462;28;20431;-82
2023/03/06 10:10:42;;;;;;;16.52;7.30;;;;;;;;;;5039267;28;21110;-83
2023/03/06 10:13:14;;;;;;;15.68;7.10;;;;;;;;;;5054981;28;20426;-82
2023/03/06 10:15:47;;;;;;;16.10;7.10;;;;;;;;;;5059940;28;20414;-82
2023/03/06 10:18:15;;;;;;;18.95;7.10;;;;;;;;;;5034407;28;20431;-83
2023/03/06 10:20:54;;;;;;;15.13;6.63;;;;;;;;;;5033118;28;20427;-83
2023/03/06 10:23:31;;;;;;;15.68;7.10;;;;;;;;;;5059998;28;20410;-82
2023/03/06 10:26:12;;;;;;;18.50;8.23;;;;;;;;;;5054886;28;21673;-83
2023/03/06 10:28:41;;;;;;;15.63;6.85;;;;;;;;;;5032594;28;20655;-83
2023/03/06 10:31:16;;;;;;;14.50;6.57;;;;;;;;;;5034967;28;20514;-83
2023/03/06 10:33:52;;;;;;;12.68;5.85;;;;;;;;;;5035527;28;20428;-83
2023/03/06 10:36:25;;;;;;;14.98;5.80;;;;;;;;;;5057113;28;20937;-83
2023/03/06 10:38:58;;;;;;;13.90;6.10;;;;;;;;;;5033489;28;20422;-83
2023/03/06 10:41:34;;;;;;;11.65;4.90;;;;;;;;;;5042720;28;20426;-84
2023/03/06 10:44:17;;;;;;;10.48;4.82;;;;;;;;;;5039567;28;20427;-83
2023/03/06 10:46:46;;;;;;;10.27;4.15;;;;;;;;;;5048528;28;20896;-83
2023/03/06 10:49:23;;;;;;;11.18;4.60;;;;;;;;;;5032275;28;20431;-83
2023/03/06 10:51:59;;;;;;;11.98;4.35;;;;;;;;;;5052428;28;20418;-82
2023/03/06 10:54:33;;;;;;;14.27;4.70;;;;;;;;;;5040691;28;20433;-83
2023/03/06 10:57:17;;;;;;;14.95;7.15;;;;;;;;;;5066927;28;20421;-84
2023/03/06 10:59:51;;;;;;;13.48;4.28;;;;;;;;;;5044503;28;20770;-82
2023/03/06 11:02:26;;;;;;;10.38;3.78;;;;;;;;;;5054756;28;20422;-83
2023/03/06 11:05:00;;;;;;;9.52;3.92;;;;;;;;;;5049131;28;20433;-82
2023/03/06 11:07:35;;;;;;;8.20;3.53;;;;;;;;;;5048458;28;20435;-82
2023/03/06 11:10:17;;;;;;;11.18;4.30;;;;;;;;;;5053314;28;20466;-83
2023/03/06 11:12:57;;;;;;;9.10;4.18;;;;;;;;;;5035451;28;20450;-83
2023/03/06 11:15:30;;;;;;;10.50;4.43;;;;;;;;;;5036836;28;20435;-83
2023/03/06 11:17:59;;;;;;;12.80;4.20;;;;;;;;;;5055309;28;20462;-83
2023/03/06 11:20:33;;;;;;;8.88;3.92;;;;;;;;;;5038607;28;20427;-83
2023/03/06 11:23:05;;;;;;;9.93;4.10;;;;;;;;;;5054782;28;20464;-83
2023/03/06 11:25:35;;;;;;;7.83;3.20;;;;;;;;;;5057229;28;20418;-83
2023/03/06 11:28:13;;;;;;;8.13;2.97;;;;;;;;;;5035713;28;20444;-83
2023/03/06 11:30:47;;;;;;;9.40;3.47;;;;;;;;;;5055639;28;20445;-84
2023/03/06 11:33:23;;;;;;;8.20;3.38;;;;;;;;;;5043378;28;20431;-84
2023/03/06 11:35:54;;;;;;;9.60;3.70;;;;;;;;;;5058245;28;21558;-83
2023/03/06 11:38:32;;;;;;;7.53;3.42;;;;;;;;;;5045533;28;20422;-83
2023/03/06 11:41:02;;;;;;;7.23;2.73;;;;;;;;;;5054029;28;20421;-83
2023/03/06 11:43:35;;;;;;;7.53;2.70;;;;;;;;;;5036444;28;20430;-83
2023/03/06 11:46:05;;;;;;;8.13;2.70;;;;;;;;;;5042382;28;20437;-83
2023/03/06 11:48:42;;;;;;;6.43;2.33;;;;;;;;;;5040051;28;20479;-83
2023/03/06 11:51:13;;;;;;;7.85;2.40;;;;;;;;;;5052435;28;20434;-83
2023/03/06 11:53:48;;;;;;;8.10;2.10;;;;;;;;;;5040656;28;20436;-83
2023/03/06 11:56:30;;;;;;;5.97;1.80;;;;;;;;;;5055602;28;20433;-85
2023/03/06 11:59:22;;;;;;;5.67;1.90;;;;;;;;;;5055506;28;20439;-82
2023/03/06 12:01:59;;;;;;;5.32;2.03;;;;;;;;;;5038980;28;20432;-83
2023/03/06 12:04:49;;;;;;;5.88;1.98;;;;;;;;;;5034569;28;21335;-83
2023/03/06 12:07:25;;;;;;;5.22;1.90;;;;;;;;;;5057141;28;20429;-83
2023/03/06 12:09:57;;;;;;;6.10;2.13;;;;;;;;;;5054130;28;20427;-82
2023/03/06 12:12:37;;;;;;;5.20;2.10;;;;;;;;;;5036516;28;20424;-82
2023/03/06 12:15:15;;;;;;;7.00;2.00;;;;;;;;;;5052729;28;20998;-83
2023/03/06 12:17:52;;;;;;;7.17;2.10;;;;;;;;;;5055501;28;21575;-83
2023/03/06 12:20:34;;;;;;;6.40;2.50;;;;;;;;;;5053528;28;20470;-83
2023/03/06 12:23:11;;;;;;;6.65;2.35;;;;;;;;;;5055178;28;20437;-82
2023/03/06 12:25:43;;;;;;;6.88;3.03;;;;;;;;;;5054784;28;20436;-82
2023/03/06 12:28:29;;;;;;;7.85;3.10;;;;;;;;;;5059190;28;20428;-82
2023/03/06 12:31:22;;;;;;;8.55;3.50;;;;;;;;;;5057416;28;20790;-83
2023/03/06 12:33:55;;;;;;;8.98;3.60;;;;;;;;;;5054855;28;22155;-82
2023/03/06 12:36:29;;;;;;;9.52;3.70;;;;;;;;;;5040069;28;20420;-82
2023/03/06 12:39:07;;;;;;;7.47;2.80;;;;;;;;;;5036086;28;20425;-83
2023/03/06 12:41:42;;;;;;;9.03;3.33;;;;;;;;;;5059883;28;20396;-82
2023/03/06 12:44:32;;;;;;;10.07;4.50;;;;;;;;;;5036578;28;21019;-83
2023/03/06 12:47:01;;;;;;;9.48;4.40;;;;;;;;;;5036687;28;20430;-84
2023/03/06 12:49:37;;;;;;;13.30;4.73;;;;;;;;;;5050198;28;20436;-84
2023/03/06 12:52:17;;;;;;;10.73;4.60;;;;;;;;;;5037818;28;21150;-84
2023/03/06 12:54:50;;;;;;;7.30;3.00;;;;;;;;;;5042233;28;20533;-82
2023/03/06 12:57:19;;;;;;;9.75;2.97;;;;;;;;;;5042204;28;20427;-82
2023/03/06 12:59:52;;;;;;;7.95;2.90;;;;;;;;;;5055220;28;20943;-83
2023/03/06 13:02:41;;;;;;;8.87;3.30;;;;;;;;;;5060476;28;20464;-82
2023/03/06 13:05:47;;;;;;;16.40;6.55;;;;;;;;;;5058756;28;20429;-83
2023/03/06 13:08:36;;;;;;;9.02;3.95;;;;;;;;;;5022275;28;20440;-83
2023/03/06 13:11:19;;;;;;;6.45;3.10;;;;;;;;;;5025640;28;20456;-83
2023/03/06 13:13:48;;;;;;;14.02;4.93;;;;;;;;;;5041911;28;20428;-83
2023/03/06 13:16:22;;;;;;;5.10;2.47;;;;;;;;;;5058464;28;20400;-84
2023/03/06 13:18:58;;;;;;;4.85;2.30;;;;;;;;;;5057763;28;20427;-84
2023/03/06 13:21:45;;;;;;;5.50;2.50;;;;;;;;;;5052602;28;20891;-84
2023/03/06 13:24:20;;;;;;;9.10;2.90;;;;;;;;;;5058625;28;20422;-82
2023/03/06 13:26:57;;;;;;;6.55;2.40;;;;;;;;;;5062540;28;20474;-83
2023/03/06 13:29:57;;;;;;;6.22;2.65;;;;;;;;;;5053008;28;20439;-82
2023/03/06 13:32:32;;;;;;;10.13;3.13;;;;;;;;;;5052508;28;20433;-83
2023/03/06 13:35:20;;;;;;;7.80;3.23;;;;;;;;;;5057163;28;21400;-84
2023/03/06 13:37:49;;;;;;;7.37;3.20;;;;;;;;;;5056338;28;20499;-82
2023/03/06 13:40:27;;;;;;;5.70;2.85;;;;;;;;;;5057802;28;20425;-82
2023/03/06 13:43:10;;;;;;;5.80;2.80;;;;;;;;;;5053849;28;20414;-82
2023/03/06 13:45:39;;;;;;;8.40;2.30;;;;;;;;;;5041304;28;20783;-83
2023/03/06 13:48:22;;;;;;;7.83;2.27;;;;;;;;;;5055346;28;20434;-82
2023/03/06 13:50:51;;;;;;;5.72;2.45;;;;;;;;;;5060346;28;21048;-86
2023/03/06 13:53:26;;;;;;;9.90;2.83;;;;;;;;;;5063829;28;20467;-84
2023/03/06 13:56:07;;;;;;;4.97;2.10;;;;;;;;;;5062781;28;20430;-84
2023/03/06 13:58:44;;;;;;;6.47;2.60;;;;;;;;;;5057803;28;20440;-84
2023/03/06 14:01:27;;;;;;;3.67;1.58;;;;;;;;;;5067098;28;20437;-83
2023/03/06 14:04:14;;;;;;;5.30;1.70;;;;;;;;;;5051167;28;20440;-84
2023/03/06 14:07:04;;;;;;;5.30;1.90;;;;;;;;;;5056395;28;20430;-85
2023/03/06 14:09:33;;;;;;;3.88;1.80;;;;;;;;;;5056511;28;20435;-84
2023/03/06 14:12:04;;;;;;;5.38;1.80;;;;;;;;;;5054671;28;20439;-84
2023/03/06 14:14:34;;;;;;;7.33;1.83;;;;;;;;;;5070198;28;20429;-83
2023/03/06 14:17:07;;;;;;;4.63;1.60;;;;;;;;;;5055928;28;20427;-84
2023/03/06 14:19:41;;;;;;;3.72;1.60;;;;;;;;;;5056899;28;20446;-84
2023/03/06 14:22:16;;;;;;;5.28;1.70;;;;;;;;;;5051340;28;20432;-84
2023/03/06 14:24:51;;;;;;;5.40;1.63;;;;;;;;;;5041030;28;21129;-84
2023/03/06 14:27:19;;;;;;;4.77;1.53;;;;;;;;;;5069890;28;20441;-82
2023/03/06 14:29:47;;;;;;;4.20;1.90;;;;;;;;;;5059969;28;20413;-83
2023/03/06 14:32:21;;;;;;;10.18;1.40;;;;;;;;;;5059076;28;20442;-83
2023/03/06 14:34:49;;;;;;;5.53;0.93;;;;;;;;;;5055494;28;20436;-84
2023/03/06 14:37:24;;;;;;;3.40;1.02;;;;;;;;;;5056008;28;20439;-85
2023/03/06 14:39:54;;;;;;;2.88;0.88;;;;;;;;;;5052518;28;20428;-82
2023/03/06 14:42:27;;;;;;;2.95;0.75;;;;;;;;;;5054746;28;20422;-83
2023/03/06 14:45:02;;;;;;;3.17;0.85;;;;;;;;;;5059980;28;20418;-84
2023/03/06 14:47:36;;;;;;;4.43;0.90;;;;;;;;;;5060567;28;20911;-83
2023/03/06 14:50:22;;;;;;;7.50;1.08;;;;;;;;;;5052817;28;20433;-84
2023/03/06 14:52:53;;;;;;;2.00;0.70;;;;;;;;;;5056758;28;20426;-84
2023/03/06 14:55:27;;;;;;;3.33;0.80;;;;;;;;;;5052881;28;20431;-83
2023/03/06 14:57:57;;;;;;;3.13;0.80;;;;;;;;;;5054635;28;20682;-84
2023/03/06 15:00:26;;;;;;;5.15;1.00;;;;;;;;;;5048799;28;20462;-83
2023/03/06 15:02:56;;;;;;;7.45;1.60;;;;;;;;;;5052315;28;20772;-84